sensor_id;sensor_type;location;lat;lon;timestamp;pressure;altitude;pressure_sealevel;temperature
68588;BMP180;55560;52.174;20.996;2022-08-16T00:01:22;99879.00;;;22.90
68588;BMP180;55560;52.174;20.996;2022-08-16T00:03:53;99877.20;;;22.90
68588;BMP180;55560;52.174;20.996;2022-08-16T00:06:21;99872.60;;;22.86
68588;BMP180;55560;52.174;20.996;2022-08-16T00:08:49;99878.00;;;22.80
68588;BMP180;55560;52.174;20.996;2022-08-16T00:11:20;99870.00;;;22.80
68588;BMP180;55560;52.174;20.996;2022-08-16T00:13:49;99873.20;;;22.80
68588;BMP180;55560;52.174;20.996;2022-08-16T00:16:24;99873.60;;;22.76
68588;BMP180;55560;52.174;20.996;2022-08-16T00:19:25;99872.20;;;22.72
68588;BMP180;55560;52.174;20.996;2022-08-16T00:22:09;99875.20;;;22.70
68588;BMP180;55560;52.174;20.996;2022-08-16T00:24:43;99872.80;;;22.70
68588;BMP180;55560;52.174;20.996;2022-08-16T00:27:13;99875.00;;;22.68
68588;BMP180;55560;52.174;20.996;2022-08-16T00:29:44;99878.60;;;22.62
68588;BMP180;55560;52.174;20.996;2022-08-16T00:32:12;99882.60;;;22.60
68588;BMP180;55560;52.174;20.996;2022-08-16T00:34:45;99886.40;;;22.60
68588;BMP180;55560;52.174;20.996;2022-08-16T00:37:24;99889.00;;;22.60
68588;BMP180;55560;52.174;20.996;2022-08-16T00:40:37;99889.00;;;22.60
68588;BMP180;55560;52.174;20.996;2022-08-16T00:43:22;99893.40;;;22.58
68588;BMP180;55560;52.174;20.996;2022-08-16T00:46:10;99888.00;;;22.60
68588;BMP180;55560;52.174;20.996;2022-08-16T00:48:59;99891.40;;;22.50
68588;BMP180;55560;52.174;20.996;2022-08-16T00:51:29;99892.40;;;22.50
68588;BMP180;55560;52.174;20.996;2022-08-16T00:53:57;99891.40;;;22.50
68588;BMP180;55560;52.174;20.996;2022-08-16T00:56:27;99894.80;;;22.50
68588;BMP180;55560;52.174;20.996;2022-08-16T00:59:19;99889.80;;;22.50
68588;BMP180;55560;52.174;20.996;2022-08-16T01:01:51;99893.00;;;22.50
68588;BMP180;55560;52.174;20.996;2022-08-16T01:04:23;99887.40;;;22.50
68588;BMP180;55560;52.174;20.996;2022-08-16T01:06:58;99890.00;;;22.48
68588;BMP180;55560;52.174;20.996;2022-08-16T01:09:32;99891.60;;;22.40
68588;BMP180;55560;52.174;20.996;2022-08-16T01:12:06;99885.40;;;22.40
68588;BMP180;55560;52.174;20.996;2022-08-16T01:14:48;99884.80;;;22.40
68588;BMP180;55560;52.174;20.996;2022-08-16T01:17:20;99887.80;;;22.40
68588;BMP180;55560;52.174;20.996;2022-08-16T01:19:55;99883.00;;;22.40
68588;BMP180;55560;52.174;20.996;2022-08-16T01:22:45;99883.60;;;22.40
68588;BMP180;55560;52.174;20.996;2022-08-16T01:25:28;99881.20;;;22.38
68588;BMP180;55560;52.174;20.996;2022-08-16T01:28:06;99880.00;;;22.38
68588;BMP180;55560;52.174;20.996;2022-08-16T01:30:39;99874.80;;;22.40
68588;BMP180;55560;52.174;20.996;2022-08-16T01:33:19;99873.20;;;22.32
68588;BMP180;55560;52.174;20.996;2022-08-16T01:36:02;99870.60;;;22.30
68588;BMP180;55560;52.174;20.996;2022-08-16T01:38:44;99867.00;;;22.30
68588;BMP180;55560;52.174;20.996;2022-08-16T01:41:28;99860.20;;;22.30
68588;BMP180;55560;52.174;20.996;2022-08-16T01:43:58;99856.40;;;22.30
68588;BMP180;55560;52.174;20.996;2022-08-16T01:49:32;99856.00;;;22.20
68588;BMP180;55560;52.174;20.996;2022-08-16T01:52:20;99851.40;;;22.22
68588;BMP180;55560;52.174;20.996;2022-08-16T01:55:23;99848.80;;;22.22
68588;BMP180;55560;52.174;20.996;2022-08-16T01:57:54;99844.40;;;22.20
68588;BMP180;55560;52.174;20.996;2022-08-16T02:00:25;99846.20;;;22.30
68588;BMP180;55560;52.174;20.996;2022-08-16T02:02:57;99845.60;;;22.30
68588;BMP180;55560;52.174;20.996;2022-08-16T02:05:25;99844.40;;;22.30
68588;BMP180;55560;52.174;20.996;2022-08-16T02:07:58;99845.00;;;22.30
68588;BMP180;55560;52.174;20.996;2022-08-16T02:10:27;99844.00;;;22.30
68588;BMP180;55560;52.174;20.996;2022-08-16T02:12:56;99834.40;;;22.24
68588;BMP180;55560;52.174;20.996;2022-08-16T02:15:30;99831.40;;;22.20
68588;BMP180;55560;52.174;20.996;2022-08-16T02:18:07;99829.40;;;22.22
68588;BMP180;55560;52.174;20.996;2022-08-16T02:20:42;99827.60;;;22.22
68588;BMP180;55560;52.174;20.996;2022-08-16T02:23:14;99828.00;;;22.22
68588;BMP180;55560;52.174;20.996;2022-08-16T02:25:45;99830.60;;;22.24
68588;BMP180;55560;52.174;20.996;2022-08-16T02:28:21;99834.00;;;22.26
68588;BMP180;55560;52.174;20.996;2022-08-16T02:30:53;99834.40;;;22.20
68588;BMP180;55560;52.174;20.996;2022-08-16T02:33:23;99832.80;;;22.20
68588;BMP180;55560;52.174;20.996;2022-08-16T02:36:23;99836.40;;;22.20
68588;BMP180;55560;52.174;20.996;2022-08-16T02:39:13;99839.60;;;22.20
68588;BMP180;55560;52.174;20.996;2022-08-16T02:41:44;99834.00;;;22.20
68588;BMP180;55560;52.174;20.996;2022-08-16T02:44:20;99832.20;;;22.20
68588;BMP180;55560;52.174;20.996;2022-08-16T02:46:54;99828.20;;;22.20
68588;BMP180;55560;52.174;20.996;2022-08-16T02:49:23;99831.00;;;22.20
68588;BMP180;55560;52.174;20.996;2022-08-16T02:52:11;99834.20;;;22.20
68588;BMP180;55560;52.174;20.996;2022-08-16T02:54:59;99830.60;;;22.20
68588;BMP180;55560;52.174;20.996;2022-08-16T02:57:28;99832.60;;;22.12
68588;BMP180;55560;52.174;20.996;2022-08-16T02:59:57;99828.60;;;22.10
68588;BMP180;55560;52.174;20.996;2022-08-16T03:02:28;99829.40;;;22.10
68588;BMP180;55560;52.174;20.996;2022-08-16T03:04:59;99832.60;;;22.10
68588;BMP180;55560;52.174;20.996;2022-08-16T03:07:29;99835.60;;;22.10
68588;BMP180;55560;52.174;20.996;2022-08-16T03:10:10;99835.00;;;22.10
68588;BMP180;55560;52.174;20.996;2022-08-16T03:12:45;99833.40;;;22.10
68588;BMP180;55560;52.174;20.996;2022-08-16T03:15:24;99834.00;;;22.10
68588;BMP180;55560;52.174;20.996;2022-08-16T03:17:54;99829.00;;;22.10
68588;BMP180;55560;52.174;20.996;2022-08-16T03:20:24;99827.00;;;22.10
68588;BMP180;55560;52.174;20.996;2022-08-16T03:23:00;99828.80;;;22.10
68588;BMP180;55560;52.174;20.996;2022-08-16T03:25:30;99825.80;;;22.02
68588;BMP180;55560;52.174;20.996;2022-08-16T03:28:11;99830.00;;;22.00
68588;BMP180;55560;52.174;20.996;2022-08-16T03:30:39;99834.40;;;22.02
68588;BMP180;55560;52.174;20.996;2022-08-16T03:33:09;99834.60;;;22.04
68588;BMP180;55560;52.174;20.996;2022-08-16T03:35:45;99833.80;;;22.00
68588;BMP180;55560;52.174;20.996;2022-08-16T03:38:21;99834.20;;;22.00
68588;BMP180;55560;52.174;20.996;2022-08-16T03:41:10;99835.20;;;22.00
68588;BMP180;55560;52.174;20.996;2022-08-16T03:43:53;99836.80;;;22.00
68588;BMP180;55560;52.174;20.996;2022-08-16T03:46:23;99837.00;;;22.00
68588;BMP180;55560;52.174;20.996;2022-08-16T03:49:13;99841.80;;;22.00
68588;BMP180;55560;52.174;20.996;2022-08-16T03:51:43;99843.20;;;22.00
68588;BMP180;55560;52.174;20.996;2022-08-16T03:54:17;99841.00;;;21.96
68588;BMP180;55560;52.174;20.996;2022-08-16T03:56:47;99848.80;;;21.96
68588;BMP180;55560;52.174;20.996;2022-08-16T03:59:24;99850.40;;;21.98
68588;BMP180;55560;52.174;20.996;2022-08-16T04:01:59;99853.20;;;21.96
68588;BMP180;55560;52.174;20.996;2022-08-16T04:04:29;99859.60;;;21.90
68588;BMP180;55560;52.174;20.996;2022-08-16T04:07:04;99859.20;;;21.90
68588;BMP180;55560;52.174;20.996;2022-08-16T04:09:36;99864.40;;;21.90
68588;BMP180;55560;52.174;20.996;2022-08-16T04:12:06;99860.80;;;21.92
68588;BMP180;55560;52.174;20.996;2022-08-16T04:14:55;99864.40;;;21.96
68588;BMP180;55560;52.174;20.996;2022-08-16T04:17:25;99865.80;;;22.00
68588;BMP180;55560;52.174;20.996;2022-08-16T04:19:55;99867.80;;;22.00
68588;BMP180;55560;52.174;20.996;2022-08-16T04:22:26;99867.40;;;22.00
68588;BMP180;55560;52.174;20.996;2022-08-16T04:24:59;99870.40;;;22.00
68588;BMP180;55560;52.174;20.996;2022-08-16T04:27:32;99872.00;;;22.10
68588;BMP180;55560;52.174;20.996;2022-08-16T04:30:06;99865.40;;;22.08
68588;BMP180;55560;52.174;20.996;2022-08-16T04:32:41;99869.00;;;22.10
68588;BMP180;55560;52.174;20.996;2022-08-16T04:35:14;99866.80;;;22.10
68588;BMP180;55560;52.174;20.996;2022-08-16T04:37:47;99871.00;;;22.10
68588;BMP180;55560;52.174;20.996;2022-08-16T04:40:25;99871.40;;;22.10
68588;BMP180;55560;52.174;20.996;2022-08-16T04:42:54;99875.60;;;22.10
68588;BMP180;55560;52.174;20.996;2022-08-16T04:45:25;99873.00;;;22.16
68588;BMP180;55560;52.174;20.996;2022-08-16T04:48:05;99872.40;;;22.20
68588;BMP180;55560;52.174;20.996;2022-08-16T04:50:40;99874.40;;;22.20
68588;BMP180;55560;52.174;20.996;2022-08-16T04:53:15;99878.20;;;22.20
68588;BMP180;55560;52.174;20.996;2022-08-16T04:55:47;99876.40;;;22.20
68588;BMP180;55560;52.174;20.996;2022-08-16T04:58:21;99875.40;;;22.20
68588;BMP180;55560;52.174;20.996;2022-08-16T05:01:09;99876.40;;;22.30
68588;BMP180;55560;52.174;20.996;2022-08-16T05:03:38;99878.00;;;22.30
68588;BMP180;55560;52.174;20.996;2022-08-16T05:06:28;99880.00;;;22.38
68588;BMP180;55560;52.174;20.996;2022-08-16T05:09:24;99885.60;;;22.40
68588;BMP180;55560;52.174;20.996;2022-08-16T05:11:55;99888.00;;;22.40
68588;BMP180;55560;52.174;20.996;2022-08-16T05:14:24;99891.80;;;22.44
68588;BMP180;55560;52.174;20.996;2022-08-16T05:17:13;99895.40;;;22.50
68588;BMP180;55560;52.174;20.996;2022-08-16T05:19:41;99897.60;;;22.60
68588;BMP180;55560;52.174;20.996;2022-08-16T05:22:25;99899.60;;;22.60
68588;BMP180;55560;52.174;20.996;2022-08-16T05:24:56;99899.40;;;22.70
68588;BMP180;55560;52.174;20.996;2022-08-16T05:27:23;99899.60;;;22.78
68588;BMP180;55560;52.174;20.996;2022-08-16T05:29:54;99900.60;;;22.80
68588;BMP180;55560;52.174;20.996;2022-08-16T05:32:27;99896.40;;;22.90
68588;BMP180;55560;52.174;20.996;2022-08-16T05:35:03;99894.60;;;22.90
68588;BMP180;55560;52.174;20.996;2022-08-16T05:37:39;99895.20;;;23.00
68588;BMP180;55560;52.174;20.996;2022-08-16T05:40:10;99895.00;;;23.10
68588;BMP180;55560;52.174;20.996;2022-08-16T05:42:40;99897.40;;;23.20
68588;BMP180;55560;52.174;20.996;2022-08-16T05:45:16;99903.20;;;23.20
68588;BMP180;55560;52.174;20.996;2022-08-16T05:47:53;99905.40;;;23.30
68588;BMP180;55560;52.174;20.996;2022-08-16T05:50:36;99904.00;;;23.30
68588;BMP180;55560;52.174;20.996;2022-08-16T05:53:08;99905.00;;;23.30
68588;BMP180;55560;52.174;20.996;2022-08-16T05:55:42;99906.00;;;23.30
68588;BMP180;55560;52.174;20.996;2022-08-16T05:58:10;99908.80;;;23.30
68588;BMP180;55560;52.174;20.996;2022-08-16T06:00:58;99903.20;;;23.20
68588;BMP180;55560;52.174;20.996;2022-08-16T06:03:26;99905.40;;;23.18
68588;BMP180;55560;52.174;20.996;2022-08-16T06:06:01;99897.40;;;23.10
68588;BMP180;55560;52.174;20.996;2022-08-16T06:08:31;99899.00;;;23.10
68588;BMP180;55560;52.174;20.996;2022-08-16T06:11:09;99894.60;;;23.10
68588;BMP180;55560;52.174;20.996;2022-08-16T06:13:41;99894.60;;;23.10
68588;BMP180;55560;52.174;20.996;2022-08-16T06:16:12;99899.00;;;23.10
68588;BMP180;55560;52.174;20.996;2022-08-16T06:18:45;99896.20;;;23.20
68588;BMP180;55560;52.174;20.996;2022-08-16T06:21:14;99898.40;;;23.22
68588;BMP180;55560;52.174;20.996;2022-08-16T06:23:51;99895.20;;;23.30
68588;BMP180;55560;52.174;20.996;2022-08-16T06:26:21;99896.00;;;23.34
68588;BMP180;55560;52.174;20.996;2022-08-16T06:28:49;99897.60;;;23.40
68588;BMP180;55560;52.174;20.996;2022-08-16T06:31:26;99895.60;;;23.50
68588;BMP180;55560;52.174;20.996;2022-08-16T06:33:55;99895.20;;;23.50
68588;BMP180;55560;52.174;20.996;2022-08-16T06:36:24;99896.40;;;23.50
68588;BMP180;55560;52.174;20.996;2022-08-16T06:38:58;99893.60;;;23.58
68588;BMP180;55560;52.174;20.996;2022-08-16T06:41:56;99893.40;;;23.70
68588;BMP180;55560;52.174;20.996;2022-08-16T06:44:43;99894.40;;;23.76
68588;BMP180;55560;52.174;20.996;2022-08-16T06:47:23;99903.00;;;23.82
68588;BMP180;55560;52.174;20.996;2022-08-16T06:50:11;99905.60;;;23.90
68588;BMP180;55560;52.174;20.996;2022-08-16T06:52:56;99906.00;;;24.00
68588;BMP180;55560;52.174;20.996;2022-08-16T06:55:33;99905.40;;;24.10
68588;BMP180;55560;52.174;20.996;2022-08-16T06:58:07;99909.20;;;24.20
68588;BMP180;55560;52.174;20.996;2022-08-16T07:00:55;99909.20;;;24.22
68588;BMP180;55560;52.174;20.996;2022-08-16T07:03:28;99907.00;;;24.30
68588;BMP180;55560;52.174;20.996;2022-08-16T07:06:17;99907.40;;;24.40
68588;BMP180;55560;52.174;20.996;2022-08-16T07:08:48;99908.00;;;24.50
68588;BMP180;55560;52.174;20.996;2022-08-16T07:11:18;99906.60;;;24.80
68588;BMP180;55560;52.174;20.996;2022-08-16T07:14:08;99908.00;;;25.10
68588;BMP180;55560;52.174;20.996;2022-08-16T07:16:55;99902.80;;;25.38
68588;BMP180;55560;52.174;20.996;2022-08-16T07:19:28;99904.60;;;25.58
68588;BMP180;55560;52.174;20.996;2022-08-16T07:22:20;99913.40;;;25.80
68588;BMP180;55560;52.174;20.996;2022-08-16T07:25:13;99911.80;;;26.00
68588;BMP180;55560;52.174;20.996;2022-08-16T07:27:43;99907.60;;;26.20
68588;BMP180;55560;52.174;20.996;2022-08-16T07:30:15;99917.00;;;26.30
68588;BMP180;55560;52.174;20.996;2022-08-16T07:33:04;99910.80;;;26.40
68588;BMP180;55560;52.174;20.996;2022-08-16T07:35:35;99905.40;;;26.40
68588;BMP180;55560;52.174;20.996;2022-08-16T07:38:11;99899.40;;;26.50
68588;BMP180;55560;52.174;20.996;2022-08-16T07:40:49;99896.80;;;26.60
68588;BMP180;55560;52.174;20.996;2022-08-16T07:43:39;99898.40;;;26.70
68588;BMP180;55560;52.174;20.996;2022-08-16T07:46:09;99898.00;;;26.70
68588;BMP180;55560;52.174;20.996;2022-08-16T07:48:58;99896.40;;;26.80
68588;BMP180;55560;52.174;20.996;2022-08-16T07:51:32;99898.80;;;26.80
68588;BMP180;55560;52.174;20.996;2022-08-16T07:54:05;99903.60;;;26.94
68588;BMP180;55560;52.174;20.996;2022-08-16T07:56:39;99900.40;;;27.00
68588;BMP180;55560;52.174;20.996;2022-08-16T07:59:07;99902.80;;;27.00
68588;BMP180;55560;52.174;20.996;2022-08-16T08:01:35;99901.00;;;27.00
68588;BMP180;55560;52.174;20.996;2022-08-16T08:04:05;99899.80;;;27.10
68588;BMP180;55560;52.174;20.996;2022-08-16T08:06:40;99898.60;;;27.30
68588;BMP180;55560;52.174;20.996;2022-08-16T08:09:14;99903.60;;;27.46
68588;BMP180;55560;52.174;20.996;2022-08-16T08:11:43;99901.60;;;27.50
68588;BMP180;55560;52.174;20.996;2022-08-16T08:14:33;99902.40;;;27.50
68588;BMP180;55560;52.174;20.996;2022-08-16T08:17:02;99906.80;;;27.50
68588;BMP180;55560;52.174;20.996;2022-08-16T08:19:36;99913.40;;;27.60
68588;BMP180;55560;52.174;20.996;2022-08-16T08:22:08;99915.40;;;27.70
68588;BMP180;55560;52.174;20.996;2022-08-16T08:24:48;99911.20;;;27.80
68588;BMP180;55560;52.174;20.996;2022-08-16T08:27:16;99911.40;;;27.80
68588;BMP180;55560;52.174;20.996;2022-08-16T08:29:51;99908.00;;;27.82
68588;BMP180;55560;52.174;20.996;2022-08-16T08:32:41;99911.40;;;27.90
68588;BMP180;55560;52.174;20.996;2022-08-16T08:35:26;99910.40;;;28.00
68588;BMP180;55560;52.174;20.996;2022-08-16T08:37:55;99914.20;;;28.08
68588;BMP180;55560;52.174;20.996;2022-08-16T08:40:28;99919.40;;;28.16
68588;BMP180;55560;52.174;20.996;2022-08-16T08:42:59;99919.40;;;28.20
68588;BMP180;55560;52.174;20.996;2022-08-16T08:45:40;99923.80;;;28.20
68588;BMP180;55560;52.174;20.996;2022-08-16T08:48:17;99921.80;;;28.30
68588;BMP180;55560;52.174;20.996;2022-08-16T08:51:10;99930.80;;;28.40
68588;BMP180;55560;52.174;20.996;2022-08-16T08:53:47;99931.00;;;28.50
68588;BMP180;55560;52.174;20.996;2022-08-16T08:56:27;99927.60;;;28.60
68588;BMP180;55560;52.174;20.996;2022-08-16T08:59:20;99931.20;;;28.70
68588;BMP180;55560;52.174;20.996;2022-08-16T09:01:51;99928.20;;;28.80
68588;BMP180;55560;52.174;20.996;2022-08-16T09:04:28;99926.60;;;28.90
68588;BMP180;55560;52.174;20.996;2022-08-16T09:06:56;99925.40;;;28.88
68588;BMP180;55560;52.174;20.996;2022-08-16T09:09:29;99924.80;;;28.80
68588;BMP180;55560;52.174;20.996;2022-08-16T09:12:00;99932.00;;;28.80
68588;BMP180;55560;52.174;20.996;2022-08-16T09:14:41;99928.00;;;28.70
68588;BMP180;55560;52.174;20.996;2022-08-16T09:17:20;99928.60;;;28.70
68588;BMP180;55560;52.174;20.996;2022-08-16T09:20:11;99931.40;;;28.70
68588;BMP180;55560;52.174;20.996;2022-08-16T09:22:43;99934.20;;;28.70
68588;BMP180;55560;52.174;20.996;2022-08-16T09:25:23;99933.40;;;28.70
68588;BMP180;55560;52.174;20.996;2022-08-16T09:27:53;99940.20;;;28.70
68588;BMP180;55560;52.174;20.996;2022-08-16T09:30:31;99941.20;;;28.60
68588;BMP180;55560;52.174;20.996;2022-08-16T09:33:14;99938.40;;;28.50
68588;BMP180;55560;52.174;20.996;2022-08-16T09:35:48;99939.00;;;28.40
68588;BMP180;55560;52.174;20.996;2022-08-16T09:38:23;99931.60;;;28.20
68588;BMP180;55560;52.174;20.996;2022-08-16T09:41:04;99932.80;;;28.14
68588;BMP180;55560;52.174;20.996;2022-08-16T09:43:42;99939.20;;;28.10
68588;BMP180;55560;52.174;20.996;2022-08-16T09:46:28;99942.60;;;28.06
68588;BMP180;55560;52.174;20.996;2022-08-16T09:49:16;99944.80;;;28.00
68588;BMP180;55560;52.174;20.996;2022-08-16T09:51:49;99942.60;;;27.90
68588;BMP180;55560;52.174;20.996;2022-08-16T09:54:23;99948.60;;;27.80
68588;BMP180;55560;52.174;20.996;2022-08-16T09:57:00;99953.60;;;27.80
68588;BMP180;55560;52.174;20.996;2022-08-16T09:59:28;99955.60;;;27.70
68588;BMP180;55560;52.174;20.996;2022-08-16T10:01:58;99958.80;;;27.70
68588;BMP180;55560;52.174;20.996;2022-08-16T10:04:46;99964.20;;;27.72
68588;BMP180;55560;52.174;20.996;2022-08-16T10:07:27;99965.00;;;27.80
68588;BMP180;55560;52.174;20.996;2022-08-16T10:10:14;99967.80;;;27.90
68588;BMP180;55560;52.174;20.996;2022-08-16T10:12:58;99968.80;;;27.90
68588;BMP180;55560;52.174;20.996;2022-08-16T10:15:46;99971.00;;;27.90
68588;BMP180;55560;52.174;20.996;2022-08-16T10:18:22;99975.40;;;28.00
68588;BMP180;55560;52.174;20.996;2022-08-16T10:21:10;99977.40;;;28.02
68588;BMP180;55560;52.174;20.996;2022-08-16T10:23:43;99976.40;;;28.10
68588;BMP180;55560;52.174;20.996;2022-08-16T10:26:11;99978.60;;;28.20
68588;BMP180;55560;52.174;20.996;2022-08-16T10:29:00;99978.60;;;28.30
68588;BMP180;55560;52.174;20.996;2022-08-16T10:31:33;99979.00;;;28.40
68588;BMP180;55560;52.174;20.996;2022-08-16T10:34:12;99986.60;;;28.40
68588;BMP180;55560;52.174;20.996;2022-08-16T10:37:00;99982.80;;;28.40
68588;BMP180;55560;52.174;20.996;2022-08-16T10:39:29;99982.20;;;28.40
68588;BMP180;55560;52.174;20.996;2022-08-16T10:42:09;99982.40;;;28.50
68588;BMP180;55560;52.174;20.996;2022-08-16T10:44:40;99979.40;;;28.50
68588;BMP180;55560;52.174;20.996;2022-08-16T10:47:10;99984.80;;;28.60
68588;BMP180;55560;52.174;20.996;2022-08-16T10:49:38;99992.20;;;28.60
68588;BMP180;55560;52.174;20.996;2022-08-16T10:52:07;99992.20;;;28.60
68588;BMP180;55560;52.174;20.996;2022-08-16T10:54:45;99992.60;;;28.60
68588;BMP180;55560;52.174;20.996;2022-08-16T10:57:33;99994.60;;;28.70
68588;BMP180;55560;52.174;20.996;2022-08-16T11:00:10;100000.60;;;28.70
68588;BMP180;55560;52.174;20.996;2022-08-16T11:02:49;100002.60;;;28.70
68588;BMP180;55560;52.174;20.996;2022-08-16T11:05:30;100005.20;;;28.80
68588;BMP180;55560;52.174;20.996;2022-08-16T11:08:18;100003.40;;;28.80
68588;BMP180;55560;52.174;20.996;2022-08-16T11:11:06;100005.60;;;28.90
68588;BMP180;55560;52.174;20.996;2022-08-16T11:13:51;100009.20;;;29.00
68588;BMP180;55560;52.174;20.996;2022-08-16T11:16:38;100003.20;;;28.90
68588;BMP180;55560;52.174;20.996;2022-08-16T11:19:27;100007.80;;;28.90
68588;BMP180;55560;52.174;20.996;2022-08-16T11:21:56;100011.40;;;29.00
68588;BMP180;55560;52.174;20.996;2022-08-16T11:24:45;100010.60;;;28.94
68588;BMP180;55560;52.174;20.996;2022-08-16T11:27:33;100013.40;;;29.00
68588;BMP180;55560;52.174;20.996;2022-08-16T11:30:04;100016.80;;;29.00
68588;BMP180;55560;52.174;20.996;2022-08-16T11:32:35;100017.20;;;29.00
68588;BMP180;55560;52.174;20.996;2022-08-16T11:35:18;100020.20;;;28.90
68588;BMP180;55560;52.174;20.996;2022-08-16T11:38:19;100019.00;;;28.70
68588;BMP180;55560;52.174;20.996;2022-08-16T11:41:07;100018.40;;;28.70
68588;BMP180;55560;52.174;20.996;2022-08-16T11:43:38;100023.00;;;28.60
68588;BMP180;55560;52.174;20.996;2022-08-16T11:46:11;100020.20;;;28.50
68588;BMP180;55560;52.174;20.996;2022-08-16T11:49:02;100018.40;;;28.40
68588;BMP180;55560;52.174;20.996;2022-08-16T11:51:30;100017.20;;;28.40
68588;BMP180;55560;52.174;20.996;2022-08-16T11:53:58;100014.20;;;28.30
68588;BMP180;55560;52.174;20.996;2022-08-16T11:56:26;100013.60;;;28.22
68588;BMP180;55560;52.174;20.996;2022-08-16T11:59:14;100013.00;;;28.18
68588;BMP180;55560;52.174;20.996;2022-08-16T12:01:42;100012.00;;;28.00
68588;BMP180;55560;52.174;20.996;2022-08-16T12:04:26;100005.80;;;27.90
68588;BMP180;55560;52.174;20.996;2022-08-16T12:06:54;100006.20;;;27.80
68588;BMP180;55560;52.174;20.996;2022-08-16T12:09:22;100008.00;;;27.90
68588;BMP180;55560;52.174;20.996;2022-08-16T12:11:57;100003.00;;;27.90
68588;BMP180;55560;52.174;20.996;2022-08-16T12:14:33;100000.40;;;28.00
68588;BMP180;55560;52.174;20.996;2022-08-16T12:17:05;100002.60;;;28.00
68588;BMP180;55560;52.174;20.996;2022-08-16T12:19:35;100003.20;;;28.20
68588;BMP180;55560;52.174;20.996;2022-08-16T12:22:05;100001.00;;;28.30
68588;BMP180;55560;52.174;20.996;2022-08-16T12:24:48;99994.40;;;28.40
68588;BMP180;55560;52.174;20.996;2022-08-16T12:27:23;99992.80;;;28.40
68588;BMP180;55560;52.174;20.996;2022-08-16T12:29:54;99986.00;;;28.40
68588;BMP180;55560;52.174;20.996;2022-08-16T12:32:25;99984.00;;;28.40
68588;BMP180;55560;52.174;20.996;2022-08-16T12:35:17;99981.20;;;28.46
68588;BMP180;55560;52.174;20.996;2022-08-16T12:37:48;99977.80;;;28.40
68588;BMP180;55560;52.174;20.996;2022-08-16T12:40:29;99980.00;;;28.40
68588;BMP180;55560;52.174;20.996;2022-08-16T12:43:01;99974.60;;;28.40
68588;BMP180;55560;52.174;20.996;2022-08-16T12:45:36;99971.60;;;28.40
68588;BMP180;55560;52.174;20.996;2022-08-16T12:48:07;99972.60;;;28.42
68588;BMP180;55560;52.174;20.996;2022-08-16T12:51:05;99969.80;;;28.40
68588;BMP180;55560;52.174;20.996;2022-08-16T12:53:56;99970.20;;;28.40
68588;BMP180;55560;52.174;20.996;2022-08-16T12:56:31;99968.80;;;28.32
68588;BMP180;55560;52.174;20.996;2022-08-16T12:59:07;99962.40;;;28.38
68588;BMP180;55560;52.174;20.996;2022-08-16T13:01:38;99955.00;;;28.40
68588;BMP180;55560;52.174;20.996;2022-08-16T13:04:08;99954.20;;;28.30
68588;BMP180;55560;52.174;20.996;2022-08-16T13:06:50;99952.20;;;28.30
68588;BMP180;55560;52.174;20.996;2022-08-16T13:09:21;99954.40;;;28.40
68588;BMP180;55560;52.174;20.996;2022-08-16T13:12:08;99955.00;;;28.50
68588;BMP180;55560;52.174;20.996;2022-08-16T13:14:47;99952.00;;;28.56
68588;BMP180;55560;52.174;20.996;2022-08-16T13:17:22;99946.40;;;28.70
68588;BMP180;55560;52.174;20.996;2022-08-16T13:19:53;99942.00;;;28.82
68588;BMP180;55560;52.174;20.996;2022-08-16T13:22:43;99940.00;;;29.00
68588;BMP180;55560;52.174;20.996;2022-08-16T13:25:17;99944.20;;;29.20
68588;BMP180;55560;52.174;20.996;2022-08-16T13:27:50;99940.20;;;29.46
68588;BMP180;55560;52.174;20.996;2022-08-16T13:30:44;99939.00;;;29.70
68588;BMP180;55560;52.174;20.996;2022-08-16T13:33:18;99938.00;;;30.00
68588;BMP180;55560;52.174;20.996;2022-08-16T13:35:58;99931.60;;;30.30
68588;BMP180;55560;52.174;20.996;2022-08-16T13:38:30;99931.20;;;30.52
68588;BMP180;55560;52.174;20.996;2022-08-16T13:41:07;99928.80;;;30.70
68588;BMP180;55560;52.174;20.996;2022-08-16T13:43:37;99924.60;;;30.92
68588;BMP180;55560;52.174;20.996;2022-08-16T13:46:06;99930.00;;;31.10
68588;BMP180;55560;52.174;20.996;2022-08-16T13:48:36;99930.00;;;31.40
68588;BMP180;55560;52.174;20.996;2022-08-16T13:51:20;99929.80;;;31.60
68588;BMP180;55560;52.174;20.996;2022-08-16T13:53:55;99931.40;;;32.02
68588;BMP180;55560;52.174;20.996;2022-08-16T13:56:33;99925.20;;;32.06
68588;BMP180;55560;52.174;20.996;2022-08-16T13:59:09;99929.20;;;32.30
68588;BMP180;55560;52.174;20.996;2022-08-16T14:01:51;99923.40;;;32.70
68588;BMP180;55560;52.174;20.996;2022-08-16T14:04:30;99924.60;;;32.80
68588;BMP180;55560;52.174;20.996;2022-08-16T14:07:00;99926.80;;;33.90
68588;BMP180;55560;52.174;20.996;2022-08-16T14:09:31;99927.40;;;33.64
68588;BMP180;55560;52.174;20.996;2022-08-16T14:12:05;99928.60;;;34.06
68588;BMP180;55560;52.174;20.996;2022-08-16T14:14:45;99933.60;;;36.00
68588;BMP180;55560;52.174;20.996;2022-08-16T14:17:13;99944.60;;;37.76
68588;BMP180;55560;52.174;20.996;2022-08-16T14:19:44;99945.80;;;39.48
68588;BMP180;55560;52.174;20.996;2022-08-16T14:22:23;99948.60;;;40.48
68588;BMP180;55560;52.174;20.996;2022-08-16T14:25:03;99944.00;;;41.52
68588;BMP180;55560;52.174;20.996;2022-08-16T14:27:37;99945.80;;;42.80
68588;BMP180;55560;52.174;20.996;2022-08-16T14:30:13;99956.20;;;43.72
68588;BMP180;55560;52.174;20.996;2022-08-16T14:32:43;99956.80;;;44.54
68588;BMP180;55560;52.174;20.996;2022-08-16T14:35:27;99951.80;;;45.12
68588;BMP180;55560;52.174;20.996;2022-08-16T14:38:16;99947.20;;;44.02
68588;BMP180;55560;52.174;20.996;2022-08-16T14:40:46;99942.00;;;42.42
68588;BMP180;55560;52.174;20.996;2022-08-16T14:43:24;99930.40;;;40.88
68588;BMP180;55560;52.174;20.996;2022-08-16T14:45:56;99924.80;;;39.68
68588;BMP180;55560;52.174;20.996;2022-08-16T14:48:24;99922.00;;;38.56
68588;BMP180;55560;52.174;20.996;2022-08-16T14:50:54;99917.00;;;37.56
68588;BMP180;55560;52.174;20.996;2022-08-16T14:53:24;99913.00;;;36.56